createdAt,value
2018-06-28T00:01:59.197Z,72.16
2018-06-28T00:04:27.376Z,71.87
2018-06-28T00:06:54.728Z,73.61
2018-06-28T00:09:21.827Z,72.61
2018-06-28T00:11:49.045Z,73.26
2018-06-28T00:14:16.211Z,73.10
2018-06-28T00:16:43.382Z,73.88
2018-06-28T00:19:10.610Z,73.86
2018-06-28T00:21:37.919Z,74.34
2018-06-28T00:24:05.156Z,74.39
2018-06-28T00:26:32.361Z,75.66
2018-06-28T00:28:59.570Z,74.96
2018-06-28T00:31:26.748Z,75.38
2018-06-28T00:33:53.929Z,76.45
2018-06-28T00:36:21.124Z,77.31
2018-06-28T00:38:48.220Z,77.99
2018-06-28T00:41:15.356Z,76.31
2018-06-28T00:43:42.592Z,77.25
2018-06-28T00:46:09.679Z,77.63
2018-06-28T00:48:36.800Z,77.92
2018-06-28T00:51:03.989Z,77.34
2018-06-28T00:53:31.186Z,77.61
2018-06-28T00:55:58.393Z,77.88
2018-06-28T00:58:25.738Z,78.27
2018-06-28T01:00:52.871Z,78.58
2018-06-28T01:03:19.988Z,78.73
2018-06-28T01:05:47.178Z,78.64
2018-06-28T01:08:14.317Z,79.26
2018-06-28T01:10:41.418Z,78.97
2018-06-28T01:13:09.656Z,78.86
2018-06-28T01:15:36.835Z,80.59
2018-06-28T01:18:05.230Z,80.23
2018-06-28T01:20:32.493Z,79.33
2018-06-28T01:23:00.217Z,79.24
2018-06-28T01:25:27.491Z,80.43
2018-06-28T01:27:54.769Z,80.55
2018-06-28T01:30:22.087Z,81.23
2018-06-28T01:32:49.223Z,80.67
2018-06-28T01:35:16.420Z,81.87
2018-06-28T01:37:43.896Z,81.91
2018-06-28T01:40:22.628Z,81.88
2018-06-28T01:43:01.221Z,81.85
2018-06-28T01:45:28.457Z,83.31
2018-06-28T01:47:55.908Z,83.15
2018-06-28T01:50:23.478Z,82.71
2018-06-28T01:52:51.832Z,82.03
2018-06-28T01:55:19.007Z,83.30
2018-06-28T01:57:46.115Z,83.67
2018-06-28T02:00:13.490Z,83.03
2018-06-28T02:02:40.630Z,83.56
2018-06-28T02:05:07.843Z,82.83
2018-06-28T02:07:35.019Z,83.81
2018-06-28T02:10:02.513Z,83.92
2018-06-28T02:12:29.804Z,84.87
2018-06-28T02:14:57.241Z,83.97
2018-06-28T02:17:25.489Z,84.65
2018-06-28T02:19:52.617Z,84.74
2018-06-28T02:22:19.812Z,83.95
2018-06-28T02:24:46.948Z,84.41
2018-06-28T02:27:14.080Z,84.53
2018-06-28T02:29:41.261Z,84.37
2018-06-28T02:32:08.379Z,84.32
2018-06-28T02:34:35.608Z,84.75
2018-06-28T02:37:02.876Z,85.39
2018-06-28T02:39:30.421Z,84.90
2018-06-28T02:41:57.628Z,84.73
2018-06-28T02:44:24.963Z,85.03
2018-06-28T02:46:52.434Z,85.15
2018-06-28T02:49:19.558Z,84.94
2018-06-28T02:51:46.772Z,85.62
2018-06-28T02:54:13.928Z,86.60
2018-06-28T02:56:41.105Z,85.92
2018-06-28T02:59:08.243Z,86.51
2018-06-28T03:01:35.397Z,85.88
2018-06-28T03:04:02.505Z,86.21
2018-06-28T03:06:29.804Z,86.55
2018-06-28T03:08:57.016Z,86.28
2018-06-28T03:11:24.182Z,86.62
2018-06-28T03:13:51.383Z,87.28
2018-06-28T03:16:18.536Z,87.03
2018-06-28T03:18:45.660Z,85.74
2018-06-28T03:21:12.904Z,87.25
2018-06-28T03:23:40.072Z,86.75
2018-06-28T03:26:07.196Z,86.77
2018-06-28T03:28:34.400Z,86.93
2018-06-28T03:31:01.627Z,87.49
2018-06-28T03:33:28.722Z,87.40
2018-06-28T03:35:55.991Z,87.22
2018-06-28T03:38:23.142Z,87.12
2018-06-28T03:40:50.295Z,88.17
2018-06-28T03:43:17.500Z,88.10
2018-06-28T03:45:44.632Z,87.81
2018-06-28T03:48:11.849Z,86.78
2018-06-28T03:50:39.302Z,87.35
2018-06-28T03:53:06.398Z,86.96
2018-06-28T03:55:33.506Z,86.64
2018-06-28T03:58:00.814Z,86.89
2018-06-28T04:00:31.495Z,86.83
2018-06-28T04:03:01.275Z,86.25
2018-06-28T04:05:28.521Z,85.29
2018-06-28T04:07:55.860Z,85.55
2018-06-28T04:10:29.921Z,85.65
2018-06-28T04:12:57.332Z,85.59
2018-06-28T04:15:24.574Z,85.72
2018-06-28T04:17:51.760Z,86.25
2018-06-28T04:20:18.969Z,84.83
2018-06-28T04:22:46.128Z,84.31
2018-06-28T04:25:13.423Z,84.76
2018-06-28T04:27:40.667Z,84.32
2018-06-28T04:30:07.759Z,84.41
2018-06-28T04:32:34.950Z,84.00
2018-06-28T04:35:02.172Z,84.45
2018-06-28T04:37:29.416Z,84.23
2018-06-28T04:39:56.902Z,83.20
2018-06-28T04:42:25.303Z,82.56
2018-06-28T04:44:52.481Z,83.09
2018-06-28T04:47:19.620Z,81.37
2018-06-28T04:49:47.017Z,81.54
2018-06-28T04:52:14.148Z,80.78
2018-06-28T04:54:41.289Z,81.23
2018-06-28T04:57:08.419Z,80.42
2018-06-28T04:59:35.539Z,79.32
2018-06-28T05:02:03.204Z,79.57
2018-06-28T05:04:30.407Z,78.89
2018-06-28T05:06:57.791Z,79.18
2018-06-28T05:09:25.221Z,78.20
2018-06-28T05:11:54.581Z,77.88
2018-06-28T05:14:21.703Z,77.51
2018-06-28T05:16:48.896Z,77.14
2018-06-28T05:19:16.034Z,76.73
2018-06-28T05:21:43.216Z,76.24
2018-06-28T05:24:10.409Z,76.50
2018-06-28T05:26:37.541Z,76.73
2018-06-28T05:29:04.839Z,75.64
2018-06-28T05:31:31.961Z,74.70
2018-06-28T05:33:59.247Z,75.94
2018-06-28T05:36:26.429Z,74.50
2018-06-28T05:38:53.754Z,73.48
2018-06-28T05:41:20.920Z,71.79
2018-06-28T05:43:48.004Z,71.86
2018-06-28T05:46:15.203Z,71.56
2018-06-28T05:48:42.314Z,70.72
2018-06-28T05:51:10.521Z,70.86
2018-06-28T05:53:37.852Z,69.54
2018-06-28T05:56:04.979Z,68.77
2018-06-28T05:58:32.317Z,69.94
2018-06-28T06:00:59.661Z,68.92
2018-06-28T06:03:26.903Z,68.91
2018-06-28T06:05:54.085Z,67.62
2018-06-28T06:08:21.236Z,67.27
2018-06-28T06:10:48.399Z,68.01
2018-06-28T06:13:15.547Z,68.59
2018-06-28T06:15:42.724Z,65.96
2018-06-28T06:18:09.843Z,67.76
2018-06-28T06:20:36.968Z,67.31
2018-06-28T06:23:04.222Z,66.42
2018-06-28T06:25:31.367Z,64.85
2018-06-28T06:27:58.537Z,66.38
2018-06-28T06:30:26.321Z,64.67
2018-06-28T06:32:53.454Z,64.58
2018-06-28T06:35:20.645Z,64.77
2018-06-28T06:37:47.825Z,63.55
2018-06-28T06:40:15.006Z,63.99
2018-06-28T06:42:42.136Z,62.74
2018-06-28T06:45:09.306Z,62.05
2018-06-28T06:47:36.497Z,62.26
2018-06-28T06:50:03.742Z,62.09
2018-06-28T06:52:30.983Z,61.33
2018-06-28T06:54:58.156Z,61.15
2018-06-28T06:57:25.319Z,61.33
2018-06-28T06:59:52.509Z,60.90
2018-06-28T07:02:19.618Z,59.41
2018-06-28T07:04:46.820Z,60.82
2018-06-28T07:07:14.163Z,60.15
2018-06-28T07:09:41.280Z,59.12
2018-06-28T07:12:08.390Z,58.63
2018-06-28T07:14:35.561Z,59.58
2018-06-28T07:17:02.753Z,58.36
2018-06-28T07:19:29.900Z,57.69
2018-06-28T07:21:57.250Z,58.57
2018-06-28T07:24:24.500Z,58.02
2018-06-28T07:26:51.791Z,56.50
2018-06-28T07:29:19.069Z,54.86
2018-06-28T07:31:46.225Z,54.42
2018-06-28T07:34:13.473Z,55.26
2018-06-28T07:36:40.582Z,56.50
2018-06-28T07:39:09.540Z,53.62
2018-06-28T07:41:36.741Z,52.95
2018-06-28T07:44:04.053Z,52.84
2018-06-28T07:46:31.246Z,52.39
2018-06-28T07:48:58.962Z,51.21
2018-06-28T07:51:26.189Z,53.32
2018-06-28T07:53:54.220Z,50.78
2018-06-28T07:56:21.404Z,50.94
2018-06-28T07:58:48.615Z,51.07
2018-06-28T08:01:15.812Z,50.19
2018-06-28T08:03:43.264Z,51.00
2018-06-28T08:06:10.873Z,49.69
2018-06-28T08:08:38.001Z,50.44
2018-06-28T08:11:05.244Z,48.17
2018-06-28T08:13:32.445Z,47.45
2018-06-28T08:15:59.597Z,49.49
2018-06-28T08:18:26.946Z,46.69
2018-06-28T08:20:54.209Z,47.87
2018-06-28T08:23:21.373Z,45.71
2018-06-28T08:25:48.514Z,44.48
2018-06-28T08:28:15.773Z,45.94
2018-06-28T08:30:43.110Z,43.41
2018-06-28T08:33:10.229Z,44.23
2018-06-28T08:35:37.408Z,44.13
2018-06-28T08:38:04.645Z,42.47
2018-06-28T08:40:31.897Z,45.89
2018-06-28T08:42:59.175Z,42.51
2018-06-28T08:45:26.392Z,41.43
2018-06-28T08:47:53.639Z,44.18
2018-06-28T08:50:20.830Z,41.43
2018-06-28T08:52:47.998Z,40.32
2018-06-28T08:55:15.221Z,41.82
2018-06-28T08:57:42.443Z,42.07
2018-06-28T09:00:09.643Z,41.05
2018-06-28T09:02:36.784Z,41.97
2018-06-28T09:05:04.350Z,41.18
2018-06-28T09:07:31.579Z,41.24
2018-06-28T09:09:58.776Z,41.05
2018-06-28T09:12:26.329Z,40.51
2018-06-28T09:14:53.527Z,38.30
2018-06-28T09:17:20.747Z,39.46
2018-06-28T09:19:47.998Z,36.82
2018-06-28T09:22:15.120Z,37.05
2018-06-28T09:24:42.240Z,37.01
2018-06-28T09:27:09.469Z,36.44
2018-06-28T09:29:36.636Z,36.14
2018-06-28T09:32:04.196Z,39.17
2018-06-28T09:34:31.405Z,35.79
2018-06-28T09:36:58.610Z,41.65
2018-06-28T09:39:25.951Z,34.44
2018-06-28T09:41:53.903Z,36.33
2018-06-28T09:44:21.155Z,38.08
2018-06-28T09:46:48.348Z,34.61
2018-06-28T09:49:15.519Z,37.33
2018-06-28T09:51:42.753Z,35.38
2018-06-28T09:54:09.956Z,35.54
2018-06-28T09:56:37.202Z,36.14
2018-06-28T09:59:04.361Z,33.98
2018-06-28T10:01:31.561Z,35.38
2018-06-28T10:03:58.865Z,33.67
2018-06-28T10:06:26.124Z,35.54
2018-06-28T10:08:53.358Z,33.73
2018-06-28T10:11:20.857Z,35.81
2018-06-28T10:13:48.002Z,35.61
2018-06-28T10:16:15.205Z,35.16
2018-06-28T10:18:42.570Z,34.70
2018-06-28T10:21:09.776Z,33.11
2018-06-28T10:23:37.480Z,34.30
2018-06-28T10:26:04.835Z,33.29
2018-06-28T10:28:32.077Z,32.16
2018-06-28T10:30:59.293Z,32.20
2018-06-28T10:33:26.703Z,33.02
2018-06-28T10:35:53.920Z,32.46
2018-06-28T10:38:21.147Z,32.50
2018-06-28T10:40:48.411Z,28.47
2018-06-28T10:43:15.531Z,31.93
2018-06-28T10:45:42.779Z,32.16
2018-06-28T10:48:10.032Z,31.54
2018-06-28T10:50:37.216Z,32.99
2018-06-28T10:53:04.438Z,31.16
2018-06-28T10:55:32.277Z,29.28
2018-06-28T10:57:59.622Z,29.62
2018-06-28T11:00:27.173Z,27.94
2018-06-28T11:02:54.635Z,35.90
2018-06-28T11:05:21.860Z,29.71
2018-06-28T11:07:49.221Z,26.41
2018-06-28T11:10:16.468Z,26.87
2018-06-28T11:12:43.600Z,26.43
2018-06-28T11:15:10.781Z,26.85
2018-06-28T11:17:38.135Z,29.04
2018-06-28T11:20:05.305Z,31.00
2018-06-28T11:22:32.604Z,26.80
2018-06-28T11:25:00.068Z,35.30
2018-06-28T11:27:27.528Z,26.58
2018-06-28T11:29:54.955Z,27.09
2018-06-28T11:32:22.173Z,28.38
2018-06-28T11:34:50.326Z,27.61
2018-06-28T11:37:17.516Z,28.65
2018-06-28T11:39:44.751Z,30.30
2018-06-28T11:42:11.875Z,29.57
2018-06-28T11:44:39.265Z,28.73
2018-06-28T11:47:06.493Z,28.10
2018-06-28T11:49:34.029Z,30.55
2018-06-28T11:52:01.230Z,29.40
2018-06-28T11:54:28.979Z,30.84
2018-06-28T11:56:56.355Z,30.15
2018-06-28T11:59:23.805Z,29.46
2018-06-28T12:01:51.244Z,30.17
2018-06-28T12:04:18.494Z,26.59
2018-06-28T12:06:45.629Z,28.21
2018-06-28T12:09:12.818Z,29.30
2018-06-28T12:11:40.498Z,32.62
2018-06-28T12:14:08.143Z,33.07
2018-06-28T12:16:35.363Z,32.33
2018-06-28T12:19:02.617Z,33.29
2018-06-28T12:21:29.832Z,39.64
2018-06-28T12:23:57.382Z,33.51
2018-06-28T12:26:25.534Z,34.23
2018-06-28T12:28:52.656Z,31.77
2018-06-28T12:31:19.892Z,29.89
2018-06-28T12:33:47.019Z,31.33
2018-06-28T12:36:14.158Z,31.74
2018-06-28T12:38:41.293Z,32.41
2018-06-28T12:41:08.525Z,33.12
2018-06-28T12:43:35.661Z,33.53
2018-06-28T12:46:02.883Z,32.01
2018-06-28T12:48:30.146Z,31.47
2018-06-28T12:50:57.391Z,32.13
2018-06-28T12:53:24.673Z,34.17
2018-06-28T12:56:29.756Z,33.19
2018-06-28T12:58:58.572Z,33.88
2018-06-28T13:01:26.312Z,33.96
2018-06-28T13:03:53.992Z,34.68
2018-06-28T13:06:21.326Z,33.32
2018-06-28T13:08:48.811Z,37.00
2018-06-28T13:11:16.008Z,35.63
2018-06-28T13:13:43.227Z,37.99
2018-06-28T13:16:12.260Z,35.91
2018-06-28T13:18:39.439Z,36.68
2018-06-28T13:21:08.833Z,36.00
2018-06-28T13:23:36.159Z,35.60
2018-06-28T13:26:03.459Z,37.14
2018-06-28T13:28:30.971Z,34.37
2018-06-28T13:30:58.302Z,34.93
2018-06-28T13:33:25.918Z,34.05
2018-06-28T13:35:53.278Z,34.87
2018-06-28T13:38:20.494Z,37.69
2018-06-28T13:40:47.723Z,33.10
2018-06-28T13:43:14.818Z,31.74
2018-06-28T13:45:41.965Z,32.55
2018-06-28T13:48:09.081Z,32.84
2018-06-28T13:50:36.261Z,30.86
2018-06-28T13:53:03.635Z,32.20
2018-06-28T13:55:30.915Z,31.31
2018-06-28T13:57:58.485Z,32.52
2018-06-28T14:00:25.897Z,32.64
2018-06-28T14:02:53.004Z,34.07
2018-06-28T14:05:20.353Z,32.56
2018-06-28T14:07:47.505Z,32.28
2018-06-28T14:10:14.616Z,31.12
2018-06-28T14:12:41.767Z,33.90
2018-06-28T14:15:08.976Z,30.61
2018-06-28T14:17:36.927Z,29.98
2018-06-28T14:20:05.187Z,31.10
2018-06-28T14:22:32.440Z,29.56
2018-06-28T14:24:59.894Z,31.77
2018-06-28T14:27:27.263Z,34.70
2018-06-28T14:29:54.840Z,32.10
2018-06-28T14:32:22.401Z,34.68
2018-06-28T14:34:49.894Z,34.43
2018-06-28T14:37:17.016Z,35.52
2018-06-28T14:39:44.175Z,36.12
2018-06-28T14:42:11.403Z,33.37
2018-06-28T14:44:38.507Z,32.63
2018-06-28T14:47:05.769Z,35.83
2018-06-28T14:49:33.113Z,36.51
2018-06-28T14:52:00.333Z,37.30
2018-06-28T14:54:27.625Z,37.85
2018-06-28T14:56:55.029Z,35.97
2018-06-28T14:59:22.176Z,36.00
2018-06-28T15:01:49.284Z,37.59
2018-06-28T15:04:16.671Z,39.03
2018-06-28T15:06:43.768Z,41.24
2018-06-28T15:09:12.864Z,40.30
2018-06-28T15:11:40.367Z,38.96
2018-06-28T15:14:07.511Z,40.58
2018-06-28T15:16:34.772Z,38.78
2018-06-28T15:19:01.957Z,40.13
2018-06-28T15:21:29.372Z,39.25
2018-06-28T15:23:56.588Z,41.05
2018-06-28T15:26:23.802Z,42.13
2018-06-28T15:28:51.084Z,40.18
2018-06-28T15:31:18.235Z,34.93
2018-06-28T15:33:45.860Z,29.71
2018-06-28T15:36:13.015Z,26.97
2018-06-28T15:38:40.183Z,30.08
2018-06-28T15:41:07.451Z,29.16
2018-06-28T15:43:34.781Z,25.71
2018-06-28T15:46:02.028Z,25.02
2018-06-28T15:48:29.669Z,25.38
2018-06-28T15:50:57.283Z,25.77
2018-06-28T15:53:25.082Z,27.31
2018-06-28T15:55:52.376Z,27.43
2018-06-28T15:58:19.509Z,29.38
2018-06-28T16:00:46.736Z,32.03
2018-06-28T16:03:13.936Z,32.28
2018-06-28T16:05:41.100Z,36.00
2018-06-28T16:08:08.279Z,33.57
2018-06-28T16:10:35.676Z,34.49
2018-06-28T16:13:02.946Z,34.57
2018-06-28T16:15:30.330Z,34.77
2018-06-28T16:17:58.066Z,35.81
2018-06-28T16:20:25.568Z,36.49
2018-06-28T16:22:52.693Z,34.79
2018-06-28T16:25:19.936Z,36.51
2018-06-28T16:27:47.119Z,35.77
2018-06-28T16:30:14.360Z,35.12
2018-06-28T16:32:41.555Z,35.93
2018-06-28T16:35:08.878Z,35.11
2018-06-28T16:37:35.996Z,38.71
2018-06-28T16:40:03.371Z,36.00
2018-06-28T16:42:30.644Z,39.06
2018-06-28T16:44:58.062Z,36.82
2018-06-28T16:47:25.438Z,35.51
2018-06-28T16:49:52.588Z,35.27
2018-06-28T16:52:19.872Z,37.99
2018-06-28T16:54:47.116Z,38.55
2018-06-28T16:57:14.281Z,37.32
2018-06-28T16:59:41.558Z,39.33
2018-06-28T17:02:08.700Z,40.33
2018-06-28T17:04:35.810Z,39.16
2018-06-28T17:07:03.229Z,38.25
2018-06-28T17:09:31.591Z,38.26
2018-06-28T17:11:58.957Z,37.42
2018-06-28T17:14:26.479Z,36.96
2018-06-28T17:16:53.937Z,37.71
2018-06-28T17:19:21.082Z,38.00
2018-06-28T17:21:48.200Z,39.08
2018-06-28T17:24:15.412Z,38.28
2018-06-28T17:26:42.568Z,39.08
2018-06-28T17:29:09.716Z,39.21
2018-06-28T17:31:36.993Z,39.19
2018-06-28T17:34:04.235Z,39.63
2018-06-28T17:36:31.491Z,39.42
2018-06-28T17:38:59.036Z,40.52
2018-06-28T17:41:26.720Z,41.12
2018-06-28T17:43:53.991Z,40.84
2018-06-28T17:46:21.180Z,40.11
2018-06-28T17:48:48.295Z,40.22
2018-06-28T17:51:15.531Z,40.63
2018-06-28T17:53:42.725Z,39.88
2018-06-28T17:56:09.846Z,39.97
2018-06-28T17:58:37.317Z,40.89
2018-06-28T18:01:04.584Z,40.78
2018-06-28T18:03:31.877Z,40.59
2018-06-28T18:05:59.131Z,41.05
2018-06-28T18:08:26.646Z,42.29
2018-06-28T18:10:53.910Z,41.72
2018-06-28T18:13:21.042Z,42.02
2018-06-28T18:15:48.208Z,42.14
2018-06-28T18:18:15.380Z,42.63
2018-06-28T18:20:42.523Z,42.98
2018-06-28T18:23:09.674Z,43.32
2018-06-28T18:25:36.779Z,43.73
2018-06-28T18:28:04.205Z,43.91
2018-06-28T18:30:31.535Z,44.33
2018-06-28T18:32:58.933Z,43.87
2018-06-28T18:35:26.262Z,44.07
2018-06-28T18:37:55.800Z,44.63
2018-06-28T18:40:22.952Z,44.60
2018-06-28T18:42:50.136Z,44.45
2018-06-28T18:45:18.340Z,43.85
2018-06-28T18:47:45.469Z,44.40
2018-06-28T18:50:12.749Z,43.82
2018-06-28T18:52:39.904Z,43.06
2018-06-28T18:55:07.052Z,43.02
2018-06-28T18:57:34.365Z,45.13
2018-06-28T19:00:01.605Z,43.15
2018-06-28T19:02:28.791Z,43.51
2018-06-28T19:04:56.193Z,45.33
2018-06-28T19:07:23.373Z,47.82
2018-06-28T19:09:56.272Z,45.54
2018-06-28T19:12:23.442Z,44.49
2018-06-28T19:14:56.289Z,45.44
2018-06-28T19:17:23.610Z,44.78
2018-06-28T19:19:50.797Z,45.07
2018-06-28T19:22:24.192Z,45.37
2018-06-28T19:24:51.355Z,45.37
2018-06-28T19:27:18.471Z,45.71
2018-06-28T19:29:51.693Z,45.00
2018-06-28T19:32:26.057Z,44.70
2018-06-28T19:34:54.200Z,45.89
2018-06-28T19:37:27.123Z,46.48
2018-06-28T19:40:00.096Z,46.40
2018-06-28T19:42:33.327Z,46.51
2018-06-28T19:45:00.868Z,45.69
2018-06-28T19:47:28.229Z,46.81
2018-06-28T19:50:01.705Z,47.80
2018-06-28T19:52:35.090Z,45.78
2018-06-28T19:55:02.617Z,46.27
2018-06-28T19:57:30.012Z,47.35
2018-06-28T19:59:57.839Z,47.37
2018-06-28T20:02:31.230Z,47.12
2018-06-28T20:04:59.137Z,47.48
2018-06-28T20:07:27.155Z,46.07
2018-06-28T20:09:54.731Z,46.51
2018-06-28T20:12:27.865Z,47.22
2018-06-28T20:15:00.789Z,47.25
2018-06-28T20:17:33.747Z,46.98
2018-06-28T20:20:06.635Z,47.14
2018-06-28T20:22:33.894Z,46.84
2018-06-28T20:25:01.190Z,47.78
2018-06-28T20:27:34.278Z,46.91
2018-06-28T20:30:07.308Z,47.60
2018-06-28T20:32:41.151Z,47.68
2018-06-28T20:35:08.287Z,50.86
2018-06-28T20:37:35.414Z,48.22
2018-06-28T20:40:02.807Z,48.52
2018-06-28T20:42:30.005Z,51.28
2018-06-28T20:44:57.500Z,49.39
2018-06-28T20:47:24.952Z,54.50
2018-06-28T20:49:52.107Z,49.83
2018-06-28T20:52:19.226Z,50.16
2018-06-28T20:54:46.369Z,51.59
2018-06-28T20:57:13.527Z,50.64
2018-06-28T20:59:40.626Z,51.93
2018-06-28T21:02:08.145Z,52.68
2018-06-28T21:04:35.277Z,52.59
2018-06-28T21:07:03.141Z,54.14
2018-06-28T21:09:30.404Z,51.50
2018-06-28T21:11:57.851Z,51.83
2018-06-28T21:14:25.508Z,54.31
2018-06-28T21:16:52.719Z,53.11
2018-06-28T21:19:19.847Z,53.17
2018-06-28T21:21:46.945Z,52.54
2018-06-28T21:24:14.197Z,55.02
2018-06-28T21:26:41.376Z,54.71
2018-06-28T21:29:08.484Z,54.71
2018-06-28T21:31:35.647Z,53.70
2018-06-28T21:34:02.849Z,53.00
2018-06-28T21:36:30.161Z,53.94
2018-06-28T21:38:57.447Z,54.76
2018-06-28T21:41:24.782Z,53.88
2018-06-28T21:43:51.954Z,54.35
2018-06-28T21:46:19.103Z,54.72
2018-06-28T21:48:46.243Z,54.79
2018-06-28T21:51:13.339Z,55.42
2018-06-28T21:53:40.486Z,54.67
2018-06-28T21:56:07.615Z,56.13
2018-06-28T21:58:34.863Z,55.73
2018-06-28T22:01:02.131Z,55.30
2018-06-28T22:03:29.397Z,55.67
2018-06-28T22:05:56.664Z,55.73
2018-06-28T22:08:23.969Z,56.61
2018-06-28T22:10:51.105Z,56.13
2018-06-28T22:13:18.196Z,57.64
2018-06-28T22:15:45.320Z,58.20
2018-06-28T22:18:12.423Z,57.91
2018-06-28T22:20:39.606Z,56.20
2018-06-28T22:23:06.773Z,57.92
2018-06-28T22:25:33.942Z,59.67
2018-06-28T22:28:01.196Z,56.94
2018-06-28T22:30:28.602Z,57.32
2018-06-28T22:32:56.031Z,58.98
2018-06-28T22:35:23.177Z,58.40
2018-06-28T22:37:53.821Z,58.46
2018-06-28T22:40:20.935Z,60.05
2018-06-28T22:42:48.055Z,59.59
2018-06-28T22:45:15.245Z,59.07
2018-06-28T22:47:42.361Z,60.05
2018-06-28T22:50:09.461Z,58.77
2018-06-28T22:52:36.591Z,59.73
2018-06-28T22:55:04.011Z,59.03
2018-06-28T22:57:31.218Z,58.89
2018-06-28T22:59:58.521Z,59.12
2018-06-28T23:02:25.838Z,58.77
2018-06-28T23:04:53.508Z,59.35
2018-06-28T23:07:20.735Z,60.28
2018-06-28T23:09:47.848Z,60.37
2018-06-28T23:12:14.976Z,61.75
2018-06-28T23:14:42.125Z,63.32
2018-06-28T23:17:09.253Z,62.02
2018-06-28T23:19:36.453Z,62.71
2018-06-28T23:22:03.759Z,64.54
2018-06-28T23:24:30.988Z,65.48
2018-06-28T23:26:58.204Z,64.92
2018-06-28T23:29:25.606Z,64.18
2018-06-28T23:31:52.779Z,64.63
2018-06-28T23:34:20.018Z,65.54
2018-06-28T23:36:47.230Z,63.65
2018-06-28T23:39:14.335Z,65.42
2018-06-28T23:41:41.473Z,65.37
2018-06-28T23:44:08.648Z,64.32
2018-06-28T23:46:36.141Z,63.55
2018-06-28T23:49:03.481Z,63.22
2018-06-28T23:51:30.968Z,62.62
2018-06-28T23:53:58.244Z,64.66
2018-06-28T23:56:25.509Z,63.37
2018-06-28T23:58:52.967Z,64.15
